Time;durP1;ratioP1;P1;durP2;ratioP2;P2;SDS_P1;SDS_P2;PMS_P1;PMS_P2;Temp;Humidity;BMP_temperature;BMP_pressure;BME280_temperature;BME280_humidity;BME280_pressure;Samples;Min_cycle;Max_cycle;Signal;HPM_P1;HPM_P2
2023/02/07 00:01:16;;;;;;;21.93;12.80;;;-6.70;99.90;-7.40;103008.00;;;;4812407;28;113417;-62
2023/02/07 00:03:42;;;;;;;27.27;12.80;;;-5.80;99.90;-7.40;103011.00;;;;4816220;28;92966;-63
2023/02/07 00:06:15;;;;;;;20.77;12.17;;;-6.70;99.90;-7.40;103010.00;;;;4815465;28;92866;-63
2023/02/07 00:08:41;;;;;;;24.53;14.53;;;-6.60;99.90;-7.40;102991.00;;;;4813888;28;93030;-63
2023/02/07 00:11:10;;;;;;;20.73;13.37;;;-6.70;99.90;-7.50;102998.00;;;;4815140;28;93007;-65
2023/02/07 00:13:36;;;;;;;27.50;14.67;;;-6.70;99.90;-7.50;103010.00;;;;4815533;28;92970;-64
2023/02/07 00:16:05;;;;;;;31.90;15.07;;;-6.80;99.90;-7.60;103021.00;;;;4817321;28;93013;-63
2023/02/07 00:18:31;;;;;;;27.43;15.70;;;-6.80;99.90;-7.60;103020.00;;;;4818423;28;92726;-64
2023/02/07 00:21:13;;;;;;;34.10;16.10;;;-6.90;99.90;-7.60;103029.00;;;;4815305;28;92805;-63
2023/02/07 00:23:39;;;;;;;32.20;16.20;;;-6.90;99.90;-7.60;103033.00;;;;4814492;28;93006;-64
2023/02/07 00:26:06;;;;;;;25.53;15.40;;;-6.90;99.90;-7.70;103026.00;;;;4815343;28;93969;-63
2023/02/07 00:28:33;;;;;;;33.90;16.70;;;-7.00;99.90;-7.70;103026.00;;;;4816195;28;93046;-63
2023/02/07 00:31:07;;;;;;;28.90;16.57;;;-7.00;99.90;-7.70;103013.00;;;;4813794;28;122360;-63
2023/02/07 00:33:36;;;;;;;32.30;17.33;;;-7.00;99.90;-7.70;103025.00;;;;4814883;28;106340;-64
2023/02/07 00:36:06;;;;;;;29.17;16.20;;;-6.90;99.90;-7.70;103016.00;;;;4817705;28;93026;-62
2023/02/07 00:38:32;;;;;;;25.93;14.00;;;-6.90;99.90;-7.70;103009.00;;;;4815282;29;112579;-64
2023/02/07 00:41:00;;;;;;;24.23;13.50;;;-7.00;99.90;-7.80;103022.00;;;;4816924;28;105473;-64
2023/02/07 00:43:26;;;;;;;22.30;12.60;;;-7.00;99.90;-7.80;103029.00;;;;4817336;28;92207;-62
2023/02/07 00:45:52;;;;;;;19.57;11.70;;;-7.10;99.90;-7.80;103019.00;;;;4815186;28;93045;-64
2023/02/07 00:48:17;;;;;;;20.70;11.33;;;-7.10;99.90;-7.90;103014.00;;;;4811796;28;123547;-63
2023/02/07 00:50:43;;;;;;;18.77;11.97;;;-7.00;99.90;-8.00;103016.00;;;;4817561;28;121206;-63
2023/02/07 00:53:09;;;;;;;26.87;12.13;;;-7.20;99.90;-8.00;103018.00;;;;4813680;28;93056;-63
2023/02/07 00:55:34;;;;;;;20.80;11.40;;;-7.20;99.90;-7.90;103023.00;;;;4813478;28;108278;-63
2023/02/07 00:58:00;;;;;;;19.57;10.80;;;-7.20;99.90;-7.90;103032.00;;;;4815199;28;122533;-63
2023/02/07 01:00:26;;;;;;;21.87;12.07;;;-7.20;99.90;-7.90;103029.00;;;;4813791;28;121394;-62
2023/02/07 01:02:51;;;;;;;20.50;12.40;;;-7.10;99.90;-7.90;103036.00;;;;4816145;28;97201;-63
2023/02/07 01:05:17;;;;;;;21.87;11.37;;;-6.10;99.90;-8.00;103032.00;;;;4815121;29;108077;-61
2023/02/07 01:07:43;;;;;;;21.70;11.67;;;-7.30;99.90;-8.00;103038.00;;;;4814870;28;93061;-63
2023/02/07 01:10:09;;;;;;;17.17;10.37;;;-7.40;99.90;-8.10;103033.00;;;;4813533;29;121997;-64
2023/02/07 01:12:35;;;;;;;19.30;11.63;;;-7.40;99.90;-8.10;103023.00;;;;4814254;29;92713;-62
2023/02/07 01:15:00;;;;;;;19.30;11.10;;;-7.40;99.90;-8.20;103030.00;;;;4814513;28;94045;-63
2023/02/07 01:17:26;;;;;;;21.03;11.53;;;-7.40;99.90;-8.20;103021.00;;;;4816692;28;93476;-63
2023/02/07 01:19:57;;;;;;;21.17;10.83;;;-7.40;99.90;-8.20;103022.00;;;;4816169;28;122351;-63
2023/02/07 01:22:24;;;;;;;16.23;9.83;;;-7.40;99.90;-8.20;103024.00;;;;4815990;28;92796;-65
2023/02/07 01:24:55;;;;;;;20.60;10.67;;;-7.50;99.90;-8.30;103024.00;;;;4816400;28;100318;-64
2023/02/07 01:27:22;;;;;;;20.80;11.03;;;-7.50;99.90;-8.30;103027.00;;;;4813666;29;93714;-64
2023/02/07 01:29:49;;;;;;;24.40;11.37;;;-7.60;99.90;-8.30;103012.00;;;;4813798;28;92910;-64
2023/02/07 01:32:15;;;;;;;19.47;11.07;;;-7.50;99.90;-8.40;103015.00;;;;4815703;28;92148;-62
2023/02/07 01:34:41;;;;;;;19.93;11.47;;;-7.60;99.90;-8.40;103010.00;;;;4813545;28;100443;-65
2023/02/07 01:37:06;;;;;;;19.67;11.87;;;-7.60;99.90;-8.40;103002.00;;;;4813107;28;122504;-64
2023/02/07 01:39:32;;;;;;;20.40;11.90;;;-7.40;99.90;-8.40;102998.00;;;;4811505;28;122551;-65
2023/02/07 01:41:58;;;;;;;14.57;8.47;;;-7.70;99.90;-8.40;102992.00;;;;4812999;28;112794;-64
2023/02/07 01:44:23;;;;;;;17.77;11.43;;;-7.70;99.90;-8.50;103000.00;;;;4812290;28;109201;-65
2023/02/07 01:46:51;;;;;;;17.80;10.17;;;-7.60;99.90;-8.50;102992.00;;;;4813033;28;122612;-64
2023/02/07 01:49:23;;;;;;;16.13;10.20;;;-7.80;99.90;-8.60;102977.00;;;;4813692;28;92902;-64
2023/02/07 01:51:56;;;;;;;15.97;9.57;;;-7.70;99.90;-8.60;102986.00;;;;4825144;28;104049;-64
2023/02/07 01:54:22;;;;;;;20.10;10.17;;;-7.80;99.90;-8.60;102981.00;;;;4816256;28;99566;-63
2023/02/07 01:56:55;;;;;;;19.20;11.00;;;-7.80;99.90;-8.60;103000.00;;;;4814062;28;122297;-63
2023/02/07 01:59:21;;;;;;;22.33;11.33;;;-7.90;99.90;-8.60;102970.00;;;;4809103;28;113877;-63
2023/02/07 02:01:47;;;;;;;23.00;11.50;;;-7.90;99.90;-8.70;102969.00;;;;4814415;28;92967;-63
2023/02/07 02:04:13;;;;;;;22.07;11.53;;;-8.00;99.90;-8.70;102982.00;;;;4812977;28;107678;-63
2023/02/07 02:06:40;;;;;;;20.00;10.63;;;-8.00;99.90;-8.70;102983.00;;;;4813269;28;93936;-64
2023/02/07 02:09:13;;;;;;;18.60;10.83;;;-8.10;99.90;-8.80;102986.00;;;;4813726;28;93091;-64
2023/02/07 02:11:56;;;;;;;16.10;10.37;;;-8.00;99.90;-8.80;102983.00;;;;4818153;28;93064;-63
2023/02/07 02:15:15;;;;;;;18.23;9.13;;;-8.00;99.90;-8.90;102989.00;;;;4812304;28;93452;-65
2023/02/07 02:18:07;;;;;;;17.37;8.83;;;-8.00;99.90;-8.90;102988.00;;;;4815197;28;93447;-63
2023/02/07 02:21:13;;;;;;;18.97;10.90;;;-8.00;99.90;-8.90;102979.00;;;;4810256;28;111440;-64
2023/02/07 02:24:15;;;;;;;16.27;9.63;;;-8.10;99.90;-8.90;102980.00;;;;4814692;28;93873;-63
2023/02/07 02:26:45;;;;;;;23.77;10.73;;;-7.00;99.90;-8.90;102983.00;;;;4812867;28;94411;-64
2023/02/07 02:29:27;;;;;;;21.80;11.60;;;-8.10;99.90;-8.90;102988.00;;;;4810947;28;99819;-63
2023/02/07 02:32:32;;;;;;;19.23;10.10;;;-8.10;99.90;-9.00;102989.00;;;;4812611;28;94277;-64
2023/02/07 02:35:42;;;;;;;21.53;10.57;;;-8.10;99.90;-9.00;102990.00;;;;4813264;28;92884;-64
2023/02/07 02:38:39;;;;;;;19.73;9.87;;;-8.20;99.90;-9.00;102987.00;;;;4810761;28;100771;-64
2023/02/07 02:41:32;;;;;;;22.60;10.43;;;-7.30;99.90;-9.10;103001.00;;;;4812500;28;93017;-64
2023/02/07 02:44:10;;;;;;;18.00;11.37;;;-8.20;99.90;-9.10;102982.00;;;;4822130;28;115483;-63
2023/02/07 02:46:51;;;;;;;23.40;12.30;;;-8.20;99.90;-9.00;102979.00;;;;5015357;27;80971;-62
2023/02/07 02:49:18;;;;;;;20.10;11.40;;;-8.30;99.90;-9.00;102964.00;;;;4966870;28;110606;-63
2023/02/07 02:51:44;;;;;;;18.43;11.13;;;-8.20;99.90;-9.00;102992.00;;;;4992063;27;83907;-64
2023/02/07 02:54:34;;;;;;;18.00;10.07;;;-8.10;99.90;-9.10;102982.00;;;;4978152;28;90893;-62
2023/02/07 02:57:37;;;;;;;19.67;11.57;;;-8.30;99.90;-9.10;102982.00;;;;4981862;28;83473;-63
2023/02/07 03:00:38;;;;;;;22.43;12.03;;;-8.30;99.90;-9.20;102965.00;;;;4972317;28;105478;-63
2023/02/07 03:03:40;;;;;;;24.70;12.60;;;-8.30;99.90;-9.20;102971.00;;;;4973905;28;103491;-62
2023/02/07 03:06:38;;;;;;;26.20;13.33;;;-8.30;99.90;-9.20;102973.00;;;;4976200;28;83579;-64
2023/02/07 03:09:24;;;;;;;33.20;15.97;;;-8.30;99.90;-9.20;102964.00;;;;4972861;28;101741;-63
2023/02/07 03:12:08;;;;;;;31.10;16.23;;;-8.50;99.90;-9.20;102973.00;;;;4992629;27;88340;-63
2023/02/07 03:15:03;;;;;;;20.50;12.07;;;-8.40;99.90;-9.30;102970.00;;;;4995661;27;89113;-63
2023/02/07 03:17:31;;;;;;;22.97;11.87;;;-8.40;99.90;-9.30;102972.00;;;;4987588;27;83421;-63
2023/02/07 03:20:17;;;;;;;21.47;12.30;;;-8.70;99.90;-9.40;102961.00;;;;4989565;27;97021;-64
2023/02/07 03:22:45;;;;;;;23.57;12.27;;;-8.40;99.90;-9.30;102971.00;;;;4977703;28;103882;-63
2023/02/07 03:25:14;;;;;;;22.13;12.60;;;-8.50;99.90;-9.40;102965.00;;;;4974567;28;83582;-63
2023/02/07 03:27:40;;;;;;;22.13;12.07;;;-8.50;99.90;-9.40;102966.00;;;;4975926;28;83382;-64
2023/02/07 03:30:10;;;;;;;18.73;11.07;;;-8.60;99.90;-9.40;102960.00;;;;4974180;28;85856;-65
2023/02/07 03:32:43;;;;;;;22.17;11.87;;;-8.60;99.90;-9.50;102965.00;;;;4991377;27;103824;-64
2023/02/07 03:35:15;;;;;;;20.23;10.97;;;-8.60;99.90;-9.50;102970.00;;;;4988014;27;96780;-63
2023/02/07 03:38:03;;;;;;;21.40;11.77;;;-8.60;99.90;-9.50;102968.00;;;;4974896;28;94111;-65
2023/02/07 03:40:36;;;;;;;22.90;11.83;;;-7.80;99.90;-9.50;102961.00;;;;4970232;28;104246;-64
2023/02/07 03:43:10;;;;;;;27.53;12.97;;;-8.80;99.90;-9.50;102946.00;;;;4977327;28;83853;-63
2023/02/07 03:45:35;;;;;;;19.50;12.77;;;-8.70;99.90;-9.50;102954.00;;;;4991724;27;105412;-63
2023/02/07 03:48:01;;;;;;;27.97;12.87;;;-8.80;99.90;-9.50;102962.00;;;;4974425;28;108829;-63
2023/02/07 03:50:27;;;;;;;23.83;12.77;;;-8.70;99.90;-9.50;102960.00;;;;4974506;28;110742;-63
2023/02/07 03:52:52;;;;;;;25.27;13.20;;;-8.70;99.90;-9.50;102965.00;;;;4976784;28;106026;-63
2023/02/07 03:55:18;;;;;;;26.03;13.37;;;-8.10;99.90;-9.50;102960.00;;;;4975022;28;113455;-64
2023/02/07 03:57:44;;;;;;;21.10;12.30;;;-8.90;99.90;-9.50;102975.00;;;;4959811;28;107439;-64
2023/02/07 04:00:10;;;;;;;23.37;12.27;;;-8.80;99.90;-9.50;102968.00;;;;4961084;28;110008;-63
2023/02/07 04:02:36;;;;;;;27.50;13.03;;;-8.60;99.90;-9.60;102960.00;;;;4962806;28;84695;-64
2023/02/07 04:05:02;;;;;;;19.43;11.47;;;-8.20;99.90;-9.60;102968.00;;;;4963279;28;112989;-64
2023/02/07 04:07:28;;;;;;;19.17;10.93;;;-8.70;99.90;-9.60;102963.00;;;;4953310;28;108497;-64
2023/02/07 04:09:53;;;;;;;21.80;12.47;;;-8.70;99.90;-9.70;102983.00;;;;4963688;28;111439;-64
2023/02/07 04:12:19;;;;;;;25.33;11.37;;;-8.90;99.90;-9.70;102987.00;;;;4959863;28;114253;-64
2023/02/07 04:14:45;;;;;;;24.60;12.03;;;-8.90;99.90;-9.70;102962.00;;;;4962518;28;113082;-64
2023/02/07 04:17:10;;;;;;;23.37;12.07;;;-7.80;99.90;-9.70;102970.00;;;;4963365;28;108390;-64
2023/02/07 04:19:36;;;;;;;26.40;12.80;;;-8.80;99.90;-9.80;102965.00;;;;4960830;28;92532;-64
2023/02/07 04:22:01;;;;;;;23.27;11.90;;;-9.00;99.90;-9.70;102956.00;;;;4962741;28;112746;-64
2023/02/07 04:24:30;;;;;;;25.97;12.20;;;-8.20;99.90;-9.80;102960.00;;;;4968080;28;113431;-62
2023/02/07 04:26:57;;;;;;;22.87;11.87;;;-9.00;99.90;-9.80;102970.00;;;;4960938;28;83470;-64
2023/02/07 04:29:22;;;;;;;21.63;11.40;;;-8.50;99.90;-9.80;102969.00;;;;4961832;28;101943;-64
2023/02/07 04:31:48;;;;;;;22.93;12.40;;;-8.70;99.90;-9.80;102972.00;;;;4968375;28;112404;-64
2023/02/07 04:34:14;;;;;;;23.00;12.27;;;-8.40;99.90;-9.80;102977.00;;;;4966054;28;113503;-65
2023/02/07 04:36:39;;;;;;;22.20;11.57;;;-8.40;99.90;-9.90;102968.00;;;;4957431;28;108832;-65
2023/02/07 04:39:05;;;;;;;24.80;12.17;;;-9.00;99.90;-9.90;102974.00;;;;4963273;28;111206;-64
2023/02/07 04:41:32;;;;;;;26.53;11.60;;;-9.00;99.90;-9.90;102978.00;;;;4964688;28;113598;-64
2023/02/07 04:43:57;;;;;;;22.90;11.67;;;-9.10;99.90;-9.90;102976.00;;;;4965398;28;83930;-65
2023/02/07 04:46:23;;;;;;;23.37;12.73;;;-9.20;99.90;-9.90;102981.00;;;;4963533;28;106991;-64
2023/02/07 04:48:49;;;;;;;22.03;12.03;;;-9.00;99.90;-9.90;102978.00;;;;4955491;28;109226;-64
2023/02/07 04:51:15;;;;;;;21.60;11.13;;;-8.60;99.90;-10.00;102978.00;;;;4962723;28;84048;-64
2023/02/07 04:53:41;;;;;;;19.93;12.27;;;-9.20;99.90;-10.00;102967.00;;;;4954542;28;83505;-64
2023/02/07 04:56:06;;;;;;;18.93;10.60;;;-9.20;99.90;-10.00;102974.00;;;;4962266;28;108392;-64
2023/02/07 04:58:32;;;;;;;14.63;9.60;;;-9.30;99.90;-10.00;102987.00;;;;4957316;28;83408;-64
2023/02/07 05:00:58;;;;;;;16.33;10.27;;;-9.30;99.90;-10.00;102985.00;;;;4962819;28;109951;-64
2023/02/07 05:03:24;;;;;;;18.93;10.33;;;-9.20;99.90;-10.10;102979.00;;;;4966951;28;84158;-64
2023/02/07 05:05:53;;;;;;;23.77;12.43;;;-8.10;99.90;-10.10;102978.00;;;;4964382;28;83684;-62
2023/02/07 05:08:19;;;;;;;17.33;10.47;;;-9.30;99.90;-10.10;102979.00;;;;4958509;28;83543;-64
2023/02/07 05:10:45;;;;;;;22.63;12.17;;;-9.30;99.90;-10.10;102980.00;;;;4959953;28;84529;-64
2023/02/07 05:13:11;;;;;;;22.17;11.33;;;-9.30;99.90;-10.10;102972.00;;;;4961670;28;112581;-64
2023/02/07 05:15:37;;;;;;;16.60;10.20;;;-9.30;99.90;-10.10;102972.00;;;;4959448;28;108758;-66
2023/02/07 05:18:03;;;;;;;17.93;11.07;;;-9.30;99.90;-10.20;102971.00;;;;4959603;28;109917;-64
2023/02/07 05:20:29;;;;;;;25.43;11.10;;;-9.30;99.90;-10.20;102983.00;;;;4955782;28;84716;-65
2023/02/07 05:22:54;;;;;;;22.07;10.83;;;-9.40;99.90;-10.30;102989.00;;;;4965588;28;84252;-64
2023/02/07 05:25:20;;;;;;;18.17;9.80;;;-9.10;99.90;-10.30;102988.00;;;;4960250;28;87022;-64
2023/02/07 05:27:46;;;;;;;19.13;10.27;;;-9.40;99.90;-10.30;102990.00;;;;4962839;28;110697;-64
2023/02/07 05:30:12;;;;;;;20.27;11.80;;;-9.50;99.90;-10.30;102990.00;;;;4964108;28;112776;-64
2023/02/07 05:35:22;;;;;;;24.63;11.07;;;-10.30;99.90;-10.30;103005.00;;;;4962613;28;83437;-64
2023/02/07 05:37:48;;;;;;;23.57;10.93;;;-9.40;99.90;-10.30;103005.00;;;;4956786;28;109955;-64
2023/02/07 05:40:13;;;;;;;22.63;11.17;;;-8.40;99.90;-10.40;103012.00;;;;4961444;28;113254;-64
2023/02/07 05:42:39;;;;;;;26.60;11.93;;;-9.50;99.90;-10.40;103016.00;;;;4958931;28;113520;-65
2023/02/07 05:45:07;;;;;;;18.63;9.20;;;-9.50;99.90;-10.40;103020.00;;;;4955026;28;108618;-64
2023/02/07 05:47:33;;;;;;;19.83;10.93;;;-9.60;99.90;-10.40;103011.00;;;;4950873;28;82108;-65
2023/02/07 05:49:59;;;;;;;16.80;9.47;;;-9.60;99.90;-10.40;103004.00;;;;4956108;28;87709;-64
2023/02/07 05:52:24;;;;;;;17.77;10.93;;;-9.60;99.90;-10.40;103009.00;;;;4956608;28;114533;-64
2023/02/07 05:54:50;;;;;;;24.47;12.03;;;-9.50;99.90;-10.40;102998.00;;;;4958372;28;109996;-65
2023/02/07 05:57:16;;;;;;;27.43;13.53;;;-9.60;99.90;-10.50;103001.00;;;;4959936;28;110753;-64
2023/02/07 05:59:42;;;;;;;22.70;13.07;;;-9.70;99.90;-10.50;102992.00;;;;4962148;28;113555;-64
2023/02/07 06:02:07;;;;;;;23.97;12.43;;;-9.60;99.90;-10.50;102996.00;;;;4960803;28;111589;-63
2023/02/07 06:04:33;;;;;;;19.17;11.07;;;-9.60;99.90;-10.50;102991.00;;;;4960349;28;108258;-63
2023/02/07 06:06:58;;;;;;;20.87;13.27;;;-9.60;99.90;-10.50;102975.00;;;;4960954;28;111534;-64
2023/02/07 06:09:24;;;;;;;21.13;12.77;;;-9.80;99.90;-10.50;102991.00;;;;4959993;28;112611;-64
2023/02/07 06:11:50;;;;;;;27.43;14.20;;;-9.60;99.90;-10.50;102994.00;;;;4963032;28;113470;-64
2023/02/07 06:14:15;;;;;;;21.53;13.57;;;-9.70;99.90;-10.60;102995.00;;;;4962455;28;94837;-63
2023/02/07 06:16:41;;;;;;;30.27;13.27;;;-9.70;99.90;-10.60;103004.00;;;;4959199;28;111127;-64
2023/02/07 06:19:07;;;;;;;24.77;13.13;;;-9.10;99.90;-10.60;102995.00;;;;4961226;28;113969;-65
2023/02/07 06:21:32;;;;;;;22.70;12.67;;;-9.80;99.90;-10.60;102998.00;;;;4965074;28;112758;-63
2023/02/07 06:23:58;;;;;;;24.90;12.67;;;-9.80;99.90;-10.60;103000.00;;;;4959788;28;108247;-64
2023/02/07 06:26:24;;;;;;;28.53;14.03;;;-9.80;99.90;-10.50;102981.00;;;;4959676;28;109738;-64
2023/02/07 06:28:49;;;;;;;20.87;13.33;;;-9.40;99.90;-10.50;102982.00;;;;4962587;28;113944;-63
2023/02/07 06:31:15;;;;;;;23.77;13.57;;;-9.80;99.90;-10.50;102995.00;;;;4961936;28;112269;-64
2023/02/07 06:33:41;;;;;;;21.17;13.50;;;-9.60;99.90;-10.50;103000.00;;;;4965724;28;83531;-64
2023/02/07 06:36:07;;;;;;;22.93;11.20;;;-10.50;99.90;-10.50;103011.00;;;;4962674;28;110773;-63
2023/02/07 06:38:32;;;;;;;15.10;9.87;;;-9.70;99.90;-10.50;103018.00;;;;4959821;28;84334;-65
2023/02/07 06:40:58;;;;;;;20.20;10.87;;;-9.10;99.90;-10.50;103019.00;;;;4961708;28;112462;-64
2023/02/07 06:43:24;;;;;;;25.73;11.83;;;-9.60;99.90;-10.60;103025.00;;;;4958892;28;107958;-65
2023/02/07 06:45:49;;;;;;;20.97;11.73;;;-9.70;99.90;-10.50;103026.00;;;;4956809;28;110897;-64
2023/02/07 06:48:15;;;;;;;22.83;11.73;;;-9.20;99.90;-10.50;103020.00;;;;4955172;28;113380;-64
2023/02/07 06:50:41;;;;;;;25.20;12.77;;;-9.90;99.90;-10.50;103023.00;;;;4955638;28;113784;-63
2023/02/07 06:53:06;;;;;;;26.67;13.17;;;-9.00;99.90;-10.50;103033.00;;;;4962047;28;107794;-64
2023/02/07 06:55:38;;;;;;;23.27;12.93;;;-9.60;99.90;-10.40;103037.00;;;;4962222;28;112608;-64
2023/02/07 06:58:05;;;;;;;22.17;12.03;;;-9.60;99.90;-10.40;103035.00;;;;4961843;28;107122;-65
2023/02/07 07:00:31;;;;;;;17.73;11.10;;;-9.60;99.90;-10.40;103033.00;;;;4963329;28;93689;-64
2023/02/07 07:02:59;;;;;;;21.50;12.17;;;-9.60;99.90;-10.30;103040.00;;;;4961991;28;83599;-64
2023/02/07 07:05:26;;;;;;;26.70;13.67;;;-9.50;99.90;-10.20;103034.00;;;;4957723;28;83924;-64
2023/02/07 07:07:51;;;;;;;25.03;14.83;;;-9.50;99.90;-10.10;103029.00;;;;4971242;28;85558;-65
2023/02/07 07:10:17;;;;;;;22.50;13.50;;;-9.40;99.90;-10.00;103039.00;;;;4957429;28;111673;-65
2023/02/07 07:12:43;;;;;;;24.80;13.50;;;-9.10;99.90;-9.80;103033.00;;;;4962973;28;83459;-64
2023/02/07 07:15:09;;;;;;;32.97;15.80;;;-8.40;99.90;-9.60;103039.00;;;;4959818;28;112808;-64
2023/02/07 07:17:35;;;;;;;24.67;15.07;;;-8.90;99.90;-9.30;103047.00;;;;4957436;28;112822;-64
2023/02/07 07:20:00;;;;;;;29.30;15.03;;;-8.40;99.90;-9.00;103047.00;;;;4960499;28;84232;-65
2023/02/07 07:22:26;;;;;;;30.80;16.20;;;-8.50;99.90;-8.80;103047.00;;;;4959468;28;83468;-64
2023/02/07 07:24:52;;;;;;;33.13;14.47;;;-8.30;99.90;-8.50;103041.00;;;;4957214;28;105145;-64
2023/02/07 07:27:17;;;;;;;30.47;17.00;;;-7.50;99.90;-8.10;103046.00;;;;4946415;28;114023;-64
2023/02/07 07:29:43;;;;;;;30.97;17.13;;;-7.60;99.90;-7.80;103046.00;;;;4964473;28;113974;-64
2023/02/07 07:32:10;;;;;;;26.20;15.07;;;-6.40;99.90;-7.50;103045.00;;;;4958513;28;109575;-63
2023/02/07 07:34:36;;;;;;;34.57;17.20;;;-6.90;99.90;-7.20;103052.00;;;;4959124;28;84733;-64
2023/02/07 07:37:02;;;;;;;35.30;17.67;;;-6.60;99.90;-6.90;103059.00;;;;4959542;28;106136;-62
2023/02/07 07:39:28;;;;;;;32.77;17.40;;;-6.30;99.90;-6.60;103047.00;;;;4961894;28;92078;-63
2023/02/07 07:41:54;;;;;;;26.93;15.47;;;-6.00;99.90;-6.30;103045.00;;;;4959518;28;108126;-64
2023/02/07 07:44:20;;;;;;;35.93;18.23;;;-5.70;99.90;-6.00;103044.00;;;;4961935;28;92480;-63
2023/02/07 07:46:46;;;;;;;41.20;19.13;;;-5.40;99.90;-5.70;103051.00;;;;4958855;28;104640;-63
2023/02/07 07:49:12;;;;;;;37.03;19.43;;;-5.10;99.90;-5.40;103052.00;;;;4963302;28;112936;-63
2023/02/07 07:51:37;;;;;;;34.47;17.90;;;-4.80;99.90;-5.20;103068.00;;;;4963185;28;83469;-63
2023/02/07 07:54:03;;;;;;;33.87;18.60;;;-4.60;99.90;-4.90;103059.00;;;;4962984;28;113728;-62
2023/02/07 07:56:29;;;;;;;32.07;17.37;;;-4.30;99.90;-4.60;103061.00;;;;4961016;28;113542;-62
2023/02/07 07:58:55;;;;;;;28.57;16.30;;;-4.10;99.90;-4.40;103082.00;;;;4964922;28;84121;-62
2023/02/07 08:01:21;;;;;;;33.70;16.90;;;-3.90;99.90;-4.10;103060.00;;;;4962791;28;83630;-62
2023/02/07 08:03:47;;;;;;;34.30;17.07;;;-3.60;99.90;-4.00;103064.00;;;;4961330;28;113500;-62
2023/02/07 08:06:13;;;;;;;25.77;14.77;;;-3.50;99.90;-3.80;103058.00;;;;4956948;28;114068;-62
2023/02/07 08:08:39;;;;;;;27.37;14.77;;;-3.30;99.90;-3.70;103074.00;;;;4962710;28;97198;-61
2023/02/07 08:11:08;;;;;;;21.43;13.40;;;-3.10;99.90;-3.40;103064.00;;;;4962691;28;91219;-62
2023/02/07 08:13:34;;;;;;;21.63;13.10;;;-3.00;99.90;-3.20;103074.00;;;;4963203;28;102113;-62
2023/02/07 08:16:01;;;;;;;21.77;14.00;;;-2.70;99.90;-3.00;103073.00;;;;4960329;28;106667;-62
2023/02/07 08:18:27;;;;;;;22.83;14.63;;;-2.50;99.90;-2.80;103057.00;;;;4959548;28;84858;-63
2023/02/07 08:20:53;;;;;;;21.47;12.27;;;-2.30;99.90;-2.80;103060.00;;;;4965429;28;83369;-64
2023/02/07 08:23:19;;;;;;;20.30;12.23;;;-2.30;99.90;-2.70;103062.00;;;;4968640;28;110429;-64
2023/02/07 08:25:45;;;;;;;26.07;12.00;;;-2.10;99.90;-2.60;103062.00;;;;4961580;28;111393;-63
2023/02/07 08:28:12;;;;;;;19.03;11.77;;;-2.10;99.90;-2.50;103071.00;;;;4962739;28;83277;-64
2023/02/07 08:30:38;;;;;;;19.87;10.67;;;-3.10;99.90;-2.50;103076.00;;;;4965402;28;100463;-64
2023/02/07 08:33:03;;;;;;;13.60;8.03;;;-1.90;99.90;-2.50;103074.00;;;;4961675;28;112695;-65
2023/02/07 08:35:29;;;;;;;21.23;11.37;;;-1.90;99.90;-2.50;103068.00;;;;4957083;28;96335;-65
2023/02/07 08:37:56;;;;;;;21.47;12.10;;;-1.90;99.90;-2.50;103076.00;;;;4958154;28;111206;-65
2023/02/07 08:40:23;;;;;;;18.87;11.83;;;-2.00;99.90;-2.40;103065.00;;;;4960238;28;83368;-66
2023/02/07 08:42:48;;;;;;;20.77;11.77;;;-1.90;99.90;-2.20;103076.00;;;;4961786;28;83709;-65
2023/02/07 08:45:16;;;;;;;20.73;12.20;;;-1.70;99.90;-2.10;103075.00;;;;4959304;28;102839;-65
2023/02/07 08:47:43;;;;;;;17.83;8.93;;;-1.60;99.90;-1.80;103070.00;;;;4959098;28;83868;-65
2023/02/07 08:50:10;;;;;;;11.93;10.27;;;-1.40;99.90;-1.60;103063.00;;;;4961950;28;82844;-66
2023/02/07 08:52:36;;;;;;;15.77;10.83;;;-1.90;99.90;-1.40;103074.00;;;;4962287;28;98863;-65
2023/02/07 08:55:02;;;;;;;12.93;7.93;;;-1.00;99.90;-1.20;103059.00;;;;4956067;28;105573;-65
2023/02/07 08:57:28;;;;;;;12.27;7.67;;;-0.80;99.90;-1.10;103063.00;;;;4956855;28;83321;-64
2023/02/07 08:59:54;;;;;;;16.27;9.13;;;-0.70;99.90;-0.90;103074.00;;;;4964334;28;83695;-64
2023/02/07 09:02:20;;;;;;;12.40;7.87;;;-0.50;99.90;-0.80;103075.00;;;;4962351;28;110033;-64
2023/02/07 09:04:46;;;;;;;11.97;8.00;;;-0.40;99.90;-0.80;103077.00;;;;4963433;28;83424;-63
2023/02/07 09:07:12;;;;;;;10.97;8.07;;;-0.40;99.90;-0.60;103071.00;;;;4960536;28;83557;-64
2023/02/07 09:09:38;;;;;;;9.77;7.37;;;-0.80;99.90;-0.40;103072.00;;;;4958111;28;82673;-63
2023/02/07 09:12:05;;;;;;;14.07;8.93;;;0.00;99.90;-0.30;103069.00;;;;4963200;28;83042;-64
2023/02/07 09:14:31;;;;;;;13.97;9.33;;;0.00;99.90;-0.10;103074.00;;;;4955829;28;83971;-64
2023/02/07 09:16:57;;;;;;;13.57;7.10;;;0.10;99.90;0.10;103070.00;;;;4958264;28;108029;-64
2023/02/07 09:19:23;;;;;;;14.03;8.63;;;0.40;99.90;0.40;103073.00;;;;4959919;28;108212;-63
2023/02/07 09:21:48;;;;;;;9.70;8.07;;;0.70;99.90;0.60;103073.00;;;;4962004;28;111990;-63
2023/02/07 09:24:14;;;;;;;11.27;8.13;;;0.80;99.90;0.80;103072.00;;;;4956919;28;111978;-63
2023/02/07 09:26:40;;;;;;;11.53;9.00;;;1.00;99.90;1.10;103073.00;;;;4958388;28;109913;-63
2023/02/07 09:29:06;;;;;;;10.43;6.83;;;1.40;99.90;1.30;103069.00;;;;4963793;28;111776;-64
2023/02/07 09:31:33;;;;;;;14.03;8.03;;;1.60;99.90;1.50;103074.00;;;;4972784;28;99578;-63
2023/02/07 09:33:59;;;;;;;10.27;7.37;;;1.70;99.90;1.80;103075.00;;;;4958094;28;112892;-65
2023/02/07 09:36:27;;;;;;;11.23;7.77;;;2.10;99.90;2.00;103077.00;;;;4957635;28;87930;-64
2023/02/07 09:38:54;;;;;;;12.43;8.20;;;2.20;99.90;2.30;103091.00;;;;4962825;28;82873;-64
2023/02/07 09:41:52;;;;;;;8.73;7.57;;;2.50;99.90;2.50;103086.00;;;;4959493;28;82723;-65
2023/02/07 09:44:49;;;;;;;16.33;10.10;;;2.70;99.90;2.60;103066.00;;;;4960235;28;82849;-64
2023/02/07 09:47:21;;;;;;;14.03;8.73;;;2.90;99.90;2.70;103079.00;;;;4958000;28;99243;-64
2023/02/07 09:49:57;;;;;;;14.10;8.30;;;3.00;99.90;2.50;103068.00;;;;4960479;28;95596;-64
2023/02/07 09:52:36;;;;;;;18.67;9.77;;;3.70;99.90;2.30;103073.00;;;;4961366;28;99710;-64
2023/02/07 09:55:04;;;;;;;14.30;7.83;;;2.70;99.90;2.50;103072.00;;;;4954906;28;93904;-65
2023/02/07 09:57:40;;;;;;;16.97;8.77;;;2.80;99.90;2.70;103077.00;;;;4962799;28;83470;-65
2023/02/07 10:00:27;;;;;;;13.23;8.67;;;2.90;99.90;2.90;103082.00;;;;4962379;28;83397;-65
2023/02/07 10:03:18;;;;;;;13.43;9.30;;;3.10;99.90;3.20;103077.00;;;;4961690;28;106012;-65
2023/02/07 10:05:58;;;;;;;10.57;7.73;;;4.20;99.90;3.60;103075.00;;;;4961791;28;106684;-66
2023/02/07 10:08:25;;;;;;;12.03;8.40;;;3.70;99.90;3.90;103082.00;;;;4962802;28;83047;-66
2023/02/07 10:11:19;;;;;;;15.40;9.73;;;4.80;99.90;4.30;103083.00;;;;4963333;28;82786;-66
2023/02/07 10:14:14;;;;;;;17.53;9.87;;;4.30;99.90;4.70;103090.00;;;;4960944;28;103696;-66
2023/02/07 10:17:08;;;;;;;15.20;7.23;;;4.70;99.90;5.10;103091.00;;;;4957916;28;83061;-66
2023/02/07 10:19:52;;;;;;;15.53;9.47;;;5.10;99.90;5.50;103093.00;;;;4962924;28;82665;-66
2023/02/07 10:22:51;;;;;;;16.33;9.07;;;5.30;99.90;5.90;103095.00;;;;4965105;28;109453;-66
2023/02/07 10:25:56;;;;;;;16.07;8.67;;;5.80;99.90;6.20;103105.00;;;;4954566;28;102052;-67
2023/02/07 10:28:48;;;;;;;15.40;9.33;;;6.20;99.90;6.60;103103.00;;;;4955722;28;83057;-67
2023/02/07 10:31:16;;;;;;;11.47;7.73;;;6.60;99.90;6.90;103117.00;;;;4957340;28;98570;-67
2023/02/07 10:33:54;;;;;;;10.30;7.40;;;7.50;99.80;7.20;103115.00;;;;4957154;28;82661;-68
2023/02/07 10:36:22;;;;;;;14.13;8.83;;;7.10;99.10;7.40;103104.00;;;;4953241;28;82594;-67
2023/02/07 10:39:05;;;;;;;14.10;8.50;;;7.80;98.20;7.40;103104.00;;;;4957753;28;83578;-67
2023/02/07 10:41:40;;;;;;;17.20;8.73;;;8.20;94.50;7.30;103101.00;;;;4960598;28;82852;-66
2023/02/07 10:44:11;;;;;;;10.27;8.47;;;7.40;93.30;7.20;103106.00;;;;4959053;28;81914;-66
2023/02/07 10:46:39;;;;;;;15.10;8.70;;;7.20;91.50;7.20;103105.00;;;;4960482;28;96178;-66
2023/02/07 10:49:05;;;;;;;13.50;7.80;;;7.50;91.90;7.30;103098.00;;;;4962297;28;82960;-66